createdAt,value
2022-08-05T00:01:28.992Z,96083.45
2022-08-05T00:03:56.812Z,96089.23
2022-08-05T00:06:30.668Z,96090.86
2022-08-05T00:09:00.807Z,96091.58
2022-08-05T00:11:34.858Z,96095.50
2022-08-05T00:14:17.188Z,96092.55
2022-08-05T00:16:53.689Z,96089.12
2022-08-05T00:19:22.399Z,96086.18
2022-08-05T00:21:49.691Z,96088.33
2022-08-05T00:24:24.298Z,96088.37
2022-08-05T00:26:53.352Z,96087.30
2022-08-05T00:29:22.735Z,96086.91
2022-08-05T00:32:13.294Z,96087.20
2022-08-05T00:35:03.564Z,96089.41
2022-08-05T00:37:50.482Z,96091.98
2022-08-05T00:40:27.526Z,96090.27
2022-08-05T00:42:58.002Z,96085.39
2022-08-05T00:45:37.876Z,96089.31
2022-08-05T00:48:08.130Z,96083.77
2022-08-05T00:50:37.316Z,96081.99
2022-08-05T00:53:09.906Z,96082.02
2022-08-05T00:55:51.345Z,96082.88
2022-08-05T00:58:19.173Z,96078.52
2022-08-05T01:00:47.154Z,96078.30
2022-08-05T01:03:22.706Z,96076.80
2022-08-05T01:05:51.273Z,96076.67
2022-08-05T01:08:40.528Z,96075.41
2022-08-05T01:11:13.629Z,96080.77
2022-08-05T01:13:59.952Z,96078.52
2022-08-05T01:16:50.127Z,96074.85
2022-08-05T01:19:30.083Z,96074.28
2022-08-05T01:22:18.828Z,96073.95
2022-08-05T01:25:39.695Z,96072.23
2022-08-05T01:28:15.725Z,96068.50
2022-08-05T01:30:55.193Z,96070.67
2022-08-05T01:33:35.310Z,96071.27
2022-08-05T01:36:28.165Z,96069.52
2022-08-05T01:39:01.141Z,96071.61
2022-08-05T01:41:33.902Z,96073.80
2022-08-05T01:44:02.816Z,96071.39
2022-08-05T01:46:42.559Z,96069.73
2022-08-05T01:49:24.764Z,96070.97
2022-08-05T01:51:59.890Z,96069.18
2022-08-05T01:54:46.080Z,96067.69
2022-08-05T01:58:14.916Z,96069.83
2022-08-05T02:04:36.257Z,96066.08
2022-08-05T02:07:04.080Z,96062.12
2022-08-05T02:09:33.723Z,96059.25
2022-08-05T02:12:13.211Z,96058.27
2022-08-05T02:14:48.228Z,96056.85
2022-08-05T02:18:32.941Z,96055.73
2022-08-05T02:20:39.136Z,96055.48
2022-08-05T02:23:10.409Z,96053.02
2022-08-05T02:25:50.196Z,96050.86
2022-08-05T02:28:33.091Z,96050.42
2022-08-05T02:31:16.292Z,96048.06
2022-08-05T02:34:06.636Z,96048.22
2022-08-05T02:36:54.035Z,96045.52
2022-08-05T02:39:23.922Z,96045.86
2022-08-05T02:41:58.059Z,96042.77
2022-08-05T02:44:33.215Z,96043.53
2022-08-05T02:47:05.197Z,96038.16
2022-08-05T02:49:37.972Z,96037.20
2022-08-05T02:52:29.640Z,96034.23
2022-08-05T02:55:05.647Z,96034.77
2022-08-05T02:58:11.265Z,96035.58
2022-08-05T03:00:24.804Z,96037.64
2022-08-05T03:02:57.296Z,96033.39
2022-08-05T03:06:55.155Z,96032.35
2022-08-05T03:08:15.590Z,96037.86
2022-08-05T03:11:55.322Z,96041.60
2022-08-05T03:13:51.879Z,96044.90
2022-08-05T03:16:20.165Z,96042.11
2022-08-05T03:18:47.561Z,96044.90
2022-08-05T03:21:15.593Z,96044.55
2022-08-05T03:23:44.040Z,96049.11
2022-08-05T03:26:30.862Z,96047.16
2022-08-05T03:29:01.365Z,96047.30
2022-08-05T03:31:56.791Z,96042.09
2022-08-05T03:34:24.298Z,96040.83
2022-08-05T03:36:52.649Z,96041.30
2022-08-05T03:39:26.865Z,96044.81
2022-08-05T03:41:56.183Z,96044.39
2022-08-05T03:44:24.487Z,96045.86
2022-08-05T03:46:52.331Z,96050.63
2022-08-05T03:49:30.802Z,96048.77
2022-08-05T03:52:38.146Z,96050.29
2022-08-05T03:56:09.274Z,96049.16
2022-08-05T03:57:59.329Z,96051.20
2022-08-05T04:00:31.303Z,96051.41
2022-08-05T04:03:02.836Z,96055.55
2022-08-05T04:06:10.994Z,96056.05
2022-08-05T04:08:40.474Z,96050.68
2022-08-05T04:11:09.977Z,96048.77
2022-08-05T04:13:49.851Z,96051.53
2022-08-05T04:16:25.177Z,96048.73
2022-08-05T04:18:57.715Z,96042.98
2022-08-05T04:22:10.284Z,96041.81
2022-08-05T04:24:19.714Z,96043.05
2022-08-05T04:26:50.201Z,96043.91
2022-08-05T04:29:17.051Z,96045.44
2022-08-05T04:31:48.182Z,96044.33
2022-08-05T04:34:29.578Z,96044.55
2022-08-05T04:37:00.767Z,96047.72
2022-08-05T04:39:27.974Z,96048.11
2022-08-05T04:41:55.303Z,96046.81
2022-08-05T04:44:29.363Z,96044.52
2022-08-05T04:47:09.954Z,96039.14
2022-08-05T04:50:01.726Z,96039.08
2022-08-05T04:52:28.280Z,96040.14
2022-08-05T04:54:57.222Z,96044.38
2022-08-05T04:57:28.919Z,96040.48
2022-08-05T04:59:57.486Z,96039.85
2022-08-05T05:02:41.470Z,96040.98
2022-08-05T05:05:26.552Z,96039.30
2022-08-05T05:08:02.409Z,96041.05
2022-08-05T05:10:55.842Z,96039.70
2022-08-05T05:13:23.350Z,96035.66
2022-08-05T05:15:57.365Z,96038.38
2022-08-05T05:18:33.665Z,96038.92
2022-08-05T05:21:03.086Z,96039.77
2022-08-05T05:24:01.913Z,96042.16
2022-08-05T05:26:17.176Z,96039.35
2022-08-05T05:28:44.867Z,96038.77
2022-08-05T05:31:12.564Z,96036.89
2022-08-05T05:33:59.607Z,96035.21
2022-08-05T05:36:28.828Z,96034.22
2022-08-05T05:38:57.324Z,96033.14
2022-08-05T05:41:24.411Z,96036.59
2022-08-05T05:43:58.098Z,96036.44
2022-08-05T05:46:27.468Z,96033.48
2022-08-05T05:48:59.411Z,96036.86
2022-08-05T05:51:49.941Z,96034.80
2022-08-05T05:54:17.945Z,96033.61
2022-08-05T05:56:51.090Z,96033.75
2022-08-05T05:59:19.933Z,96033.25
2022-08-05T06:01:57.150Z,96031.74
2022-08-05T06:04:25.285Z,96033.26
2022-08-05T06:06:52.202Z,96033.22
2022-08-05T06:09:25.911Z,96035.05
2022-08-05T06:12:03.080Z,96034.35
2022-08-05T06:14:31.030Z,96037.67
2022-08-05T06:16:59.086Z,96038.61
2022-08-05T06:19:34.009Z,96040.36
2022-08-05T06:22:07.145Z,96041.98
2022-08-05T06:24:35.346Z,96044.55
2022-08-05T06:27:02.420Z,96043.47
2022-08-05T06:29:46.949Z,96042.84
2022-08-05T06:32:25.323Z,96045.54
2022-08-05T06:34:56.365Z,96044.71
2022-08-05T06:37:56.446Z,96047.73
2022-08-05T06:40:13.722Z,96047.58
2022-08-05T06:42:40.625Z,96046.65
2022-08-05T06:45:10.730Z,96047.39
2022-08-05T06:48:37.078Z,96052.27
2022-08-05T06:50:38.747Z,96054.34
2022-08-05T06:53:19.653Z,96051.46
2022-08-05T06:55:55.040Z,96054.45
2022-08-05T06:58:34.754Z,96054.77
2022-08-05T07:01:06.133Z,96056.17
2022-08-05T07:03:35.025Z,96057.29
2022-08-05T07:06:06.033Z,96058.51
2022-08-05T07:08:42.826Z,96059.40
2022-08-05T07:11:15.255Z,96057.35
2022-08-05T07:14:02.589Z,96057.14
2022-08-05T07:18:08.749Z,96050.98
2022-08-05T07:20:16.781Z,96046.08
2022-08-05T07:22:30.512Z,96049.23
2022-08-05T07:25:22.718Z,96046.96
2022-08-05T07:28:05.406Z,96048.00
2022-08-05T07:30:55.052Z,96044.58
2022-08-05T07:33:36.855Z,96044.86
2022-08-05T07:36:20.802Z,96043.36
2022-08-05T07:39:08.692Z,96042.42
2022-08-05T07:42:13.711Z,96045.73
2022-08-05T07:44:40.373Z,96048.21
2022-08-05T07:47:10.162Z,96048.96
2022-08-05T07:49:43.563Z,96052.39
2022-08-05T07:52:21.384Z,96051.77
2022-08-05T07:54:59.005Z,96051.56
2022-08-05T07:57:56.339Z,96052.84
2022-08-05T08:00:26.428Z,96052.48
2022-08-05T08:03:13.578Z,96054.14
2022-08-05T08:05:49.267Z,96054.98
2022-08-05T08:08:19.848Z,96051.30
2022-08-05T08:10:48.655Z,96044.30
2022-08-05T08:13:22.161Z,96044.38
2022-08-05T08:16:35.317Z,96046.93
2022-08-05T08:18:49.931Z,96044.20
2022-08-05T08:21:17.619Z,96044.98
2022-08-05T08:24:01.571Z,96038.73
2022-08-05T08:26:33.947Z,96032.96
2022-08-05T08:29:22.013Z,96034.59
2022-08-05T08:31:58.946Z,96030.84
2022-08-05T08:34:30.221Z,96031.85
2022-08-05T08:37:04.627Z,96031.63
2022-08-05T08:39:37.424Z,96028.29
2022-08-05T08:42:15.179Z,96029.64
2022-08-05T08:45:23.475Z,96032.58
2022-08-05T08:48:12.561Z,96029.61
2022-08-05T08:51:04.145Z,96028.00
2022-08-05T08:53:38.137Z,96023.70
2022-08-05T08:56:13.744Z,96023.67
2022-08-05T08:58:44.452Z,96025.55
2022-08-05T09:01:18.293Z,96025.80
2022-08-05T09:03:47.713Z,96023.58
2022-08-05T09:06:27.783Z,96020.42
2022-08-05T09:09:01.636Z,96016.98
2022-08-05T09:11:51.698Z,96016.25
2022-08-05T09:14:58.822Z,96012.57
2022-08-05T09:17:09.720Z,96007.26
2022-08-05T09:20:02.612Z,96006.89
2022-08-05T09:23:19.205Z,96006.02
2022-08-05T09:26:02.328Z,96005.36
2022-08-05T09:28:37.052Z,95998.52
2022-08-05T09:32:39.009Z,95991.89
2022-08-05T09:34:54.370Z,95993.09
2022-08-05T09:38:17.510Z,95994.72
2022-08-05T09:40:56.425Z,95992.45
2022-08-05T09:43:54.588Z,95988.52
2022-08-05T09:46:30.676Z,95986.64
2022-08-05T09:49:19.867Z,95981.91
2022-08-05T09:52:21.901Z,95980.94
2022-08-05T09:55:56.478Z,95977.98
2022-08-05T09:58:47.380Z,95976.29
2022-08-05T10:01:31.895Z,95977.84
2022-08-05T10:04:35.720Z,95980.02
2022-08-05T10:07:19.589Z,95979.27
2022-08-05T10:10:04.408Z,95975.52
2022-08-05T10:12:49.186Z,95976.26
2022-08-05T10:15:38.010Z,95968.92
2022-08-05T10:18:23.074Z,95961.83
2022-08-05T10:20:52.699Z,95960.51
2022-08-05T10:23:50.980Z,95959.77
2022-08-05T10:26:15.199Z,95955.04
2022-08-05T10:28:45.057Z,95955.71
2022-08-05T10:32:48.526Z,95955.27
2022-08-05T10:34:03.712Z,95952.90
2022-08-05T10:36:36.431Z,95948.77
2022-08-05T10:40:03.551Z,95947.27
2022-08-05T10:42:22.797Z,95948.23
2022-08-05T10:45:01.599Z,95943.88
2022-08-05T10:47:33.746Z,95940.89
2022-08-05T10:50:31.691Z,95941.73
2022-08-05T10:53:01.033Z,95941.36
2022-08-05T10:55:38.484Z,95940.42
2022-08-05T10:58:19.996Z,95936.42
2022-08-05T11:00:55.449Z,95934.92
2022-08-05T11:03:30.672Z,95934.13
2022-08-05T11:06:08.395Z,95935.11
2022-08-05T11:09:13.207Z,95932.50
2022-08-05T11:11:53.469Z,95932.48
2022-08-05T11:17:57.905Z,95932.69
2022-08-05T11:20:52.014Z,95931.35
2022-08-05T11:24:05.437Z,95928.91
2022-08-05T11:26:39.378Z,95926.64
2022-08-05T11:29:14.059Z,95925.06
2022-08-05T11:31:56.968Z,95920.85
2022-08-05T11:34:58.585Z,95917.30
2022-08-05T11:38:29.935Z,95913.63
2022-08-05T11:41:35.685Z,95911.43
2022-08-05T11:44:53.433Z,95909.48
2022-08-05T11:47:48.425Z,95908.93
2022-08-05T11:50:20.015Z,95906.80
2022-08-05T11:53:09.979Z,95906.39
2022-08-05T11:55:59.267Z,95905.48
2022-08-05T11:58:34.274Z,95903.98
2022-08-05T12:01:19.153Z,95904.91
2022-08-05T12:03:55.735Z,95908.61
2022-08-05T12:06:28.115Z,95906.13
2022-08-05T12:08:59.200Z,95910.42
2022-08-05T12:11:39.891Z,95906.39
2022-08-05T12:14:14.752Z,95899.95
2022-08-05T12:16:47.299Z,95896.94
2022-08-05T12:20:26.289Z,95895.86
2022-08-05T12:22:09.640Z,95892.76
2022-08-05T12:25:02.360Z,95889.12
2022-08-05T12:27:35.660Z,95888.53
2022-08-05T12:30:22.577Z,95884.93
2022-08-05T12:33:07.342Z,95885.38
2022-08-05T12:35:47.459Z,95884.04
2022-08-05T12:38:15.860Z,95878.92
2022-08-05T12:40:49.922Z,95878.56
2022-08-05T12:43:20.625Z,95873.83
2022-08-05T12:45:53.668Z,95869.75
2022-08-05T12:48:40.793Z,95866.23
2022-08-05T12:52:12.602Z,95863.80
2022-08-05T12:54:23.755Z,95859.61
2022-08-05T12:57:03.680Z,95858.43
2022-08-05T13:00:08.352Z,95858.65
2022-08-05T13:02:30.480Z,95854.08
2022-08-05T13:05:00.319Z,95854.66
2022-08-05T13:10:19.689Z,95850.23
2022-08-05T13:12:51.057Z,95847.96
2022-08-05T13:15:41.259Z,95848.74
2022-08-05T13:18:24.074Z,95848.46
2022-08-05T13:21:12.382Z,95849.30
2022-08-05T13:24:57.727Z,95848.08
2022-08-05T13:27:52.667Z,95847.40
2022-08-05T13:30:32.933Z,95845.23
2022-08-05T13:33:05.027Z,95842.98
2022-08-05T13:36:01.915Z,95850.70
2022-08-05T13:38:36.272Z,95846.87
2022-08-05T13:41:36.094Z,95844.41
2022-08-05T13:45:06.926Z,95840.48
2022-08-05T13:48:09.741Z,95835.13
2022-08-05T13:50:24.005Z,95833.38
2022-08-05T13:52:51.512Z,95830.52
2022-08-05T13:55:40.828Z,95831.84
2022-08-05T13:58:08.624Z,95828.23
2022-08-05T14:00:38.109Z,95826.58
2022-08-05T14:03:10.317Z,95821.00
2022-08-05T14:06:25.636Z,95815.41
2022-08-05T14:08:27.339Z,95816.14
2022-08-05T14:11:03.064Z,95814.88
2022-08-05T14:13:48.236Z,95812.69
2022-08-05T14:16:17.093Z,95811.57
2022-08-05T14:18:52.258Z,95807.16
2022-08-05T14:22:07.469Z,95809.94
2022-08-05T14:24:11.865Z,95808.17
2022-08-05T14:26:51.439Z,95808.43
2022-08-05T14:29:27.735Z,95805.37
2022-08-05T14:32:12.481Z,95804.81
2022-08-05T14:34:59.211Z,95803.88
2022-08-05T14:37:42.175Z,95804.68
2022-08-05T14:40:17.125Z,95802.34
2022-08-05T14:42:44.347Z,95798.70
2022-08-05T14:45:16.053Z,95797.89
2022-08-05T14:48:05.803Z,95794.65
2022-08-05T14:50:39.786Z,95791.52
2022-08-05T14:53:07.655Z,95797.55
2022-08-05T14:55:39.138Z,95794.80
2022-08-05T14:58:11.793Z,95797.30
2022-08-05T15:00:58.374Z,95794.95
2022-08-05T15:03:33.341Z,95787.13
2022-08-05T15:06:12.890Z,95781.98
2022-08-05T15:09:01.295Z,95777.92
2022-08-05T15:11:52.884Z,95774.91
2022-08-05T15:14:33.158Z,95775.25
2022-08-05T15:17:00.957Z,95774.55
2022-08-05T15:19:27.634Z,95768.00
2022-08-05T15:21:54.523Z,95768.23
2022-08-05T15:24:27.360Z,95766.06
2022-08-05T15:26:54.126Z,95764.05
2022-08-05T15:29:22.962Z,95761.66
2022-08-05T15:31:53.031Z,95756.42
2022-08-05T15:34:31.915Z,95758.17
2022-08-05T15:37:06.358Z,95759.26
2022-08-05T15:40:59.098Z,95756.33
2022-08-05T15:42:56.640Z,95757.34
2022-08-05T15:45:10.665Z,95759.29
2022-08-05T15:47:40.303Z,95754.49
2022-08-05T15:50:08.094Z,95754.41
2022-08-05T15:52:53.693Z,95751.80
2022-08-05T15:55:24.852Z,95754.30
2022-08-05T15:58:16.785Z,95751.98
2022-08-05T16:01:04.055Z,95748.64
2022-08-05T16:03:34.712Z,95748.81
2022-08-05T16:06:11.412Z,95747.68
2022-08-05T16:08:40.508Z,95746.56
2022-08-05T16:11:10.314Z,95744.50
2022-08-05T16:13:37.283Z,95743.80
2022-08-05T16:16:04.417Z,95742.59
2022-08-05T16:18:32.330Z,95743.55
2022-08-05T16:21:04.406Z,95745.14
2022-08-05T16:23:32.974Z,95742.08
2022-08-05T16:26:26.225Z,95743.32
2022-08-05T16:28:54.751Z,95739.67
2022-08-05T16:31:21.808Z,95746.11
2022-08-05T16:33:53.926Z,95744.34
2022-08-05T16:36:23.841Z,95745.88
2022-08-05T16:38:55.013Z,95747.53
2022-08-05T16:42:12.541Z,95748.80
2022-08-05T16:44:21.110Z,95752.25
2022-08-05T16:46:55.442Z,95748.13
2022-08-05T16:49:23.424Z,95754.20
2022-08-05T16:51:51.374Z,95753.05
2022-08-05T16:54:28.663Z,95750.66
2022-08-05T16:56:57.791Z,95751.63
2022-08-05T16:59:27.688Z,95752.81
2022-08-05T17:01:57.982Z,95749.79
2022-08-05T17:04:28.626Z,95751.52
2022-08-05T17:07:03.282Z,95752.87
2022-08-05T17:09:57.242Z,95754.89
2022-08-05T17:12:51.551Z,95759.11
2022-08-05T17:15:20.732Z,95761.26
2022-08-05T17:17:55.136Z,95759.98
2022-08-05T17:20:22.159Z,95761.23
2022-08-05T17:22:55.509Z,95763.97
2022-08-05T17:25:33.910Z,95769.04
2022-08-05T17:28:06.736Z,95772.23
2022-08-05T17:30:42.560Z,95773.52
2022-08-05T17:33:17.863Z,95775.47
2022-08-05T17:36:08.841Z,95775.31
2022-08-05T17:38:33.666Z,95773.21
2022-08-05T17:41:02.933Z,95770.53
2022-08-05T17:43:46.798Z,95775.65
2022-08-05T17:46:18.337Z,95779.61
2022-08-05T17:48:47.796Z,95779.95
2022-08-05T17:51:14.635Z,95782.16
2022-08-05T17:53:54.399Z,95779.29
2022-08-05T17:56:21.739Z,95786.17
2022-08-05T17:58:49.833Z,95786.77
2022-08-05T18:01:18.387Z,95789.09
2022-08-05T18:03:58.677Z,95790.33
2022-08-05T18:06:31.146Z,95790.20
2022-08-05T18:08:58.140Z,95790.58
2022-08-05T18:11:32.979Z,95799.31
2022-08-05T18:14:03.541Z,95799.30
2022-08-05T18:16:32.527Z,95805.48
2022-08-05T18:18:59.173Z,95808.59
2022-08-05T18:21:28.711Z,95810.91
2022-08-05T18:24:13.116Z,95810.55
2022-08-05T18:26:43.890Z,95808.95
2022-08-05T18:29:10.783Z,95809.74
2022-08-05T18:31:43.148Z,95812.65
2022-08-05T18:34:12.121Z,95814.11
2022-08-05T18:36:43.620Z,95812.64
2022-08-05T18:39:42.292Z,95813.01
2022-08-05T18:42:04.749Z,95816.82
2022-08-05T18:44:49.384Z,95819.11
2022-08-05T18:47:22.606Z,95818.51
2022-08-05T18:50:10.832Z,95819.13
2022-08-05T18:52:41.216Z,95823.34
2022-08-05T18:55:17.630Z,95827.15
2022-08-05T18:57:53.072Z,95827.30
2022-08-05T19:00:27.234Z,95828.98
2022-08-05T19:03:04.185Z,95832.06
2022-08-05T19:06:13.575Z,95835.39
2022-08-05T19:08:21.652Z,95833.21
2022-08-05T19:10:49.435Z,95835.95
2022-08-05T19:13:16.762Z,95836.73
2022-08-05T19:15:59.713Z,95843.23
2022-08-05T19:18:28.306Z,95847.48
2022-08-05T19:20:55.560Z,95849.33
2022-08-05T19:24:07.125Z,95851.19
2022-08-05T19:26:09.541Z,95851.52
2022-08-05T19:28:43.158Z,95851.52
2022-08-05T19:31:13.339Z,95853.35
2022-08-05T19:33:55.651Z,95852.25
2022-08-05T19:36:25.398Z,95849.17
2022-08-05T19:39:01.218Z,95846.46
2022-08-05T19:41:58.450Z,95846.02
2022-08-05T19:44:18.528Z,95845.40
2022-08-05T19:46:46.402Z,95841.89
2022-08-05T19:49:16.950Z,95838.16
2022-08-05T19:52:05.267Z,95838.34
2022-08-05T19:54:32.348Z,95838.95
2022-08-05T19:56:59.675Z,95837.80
2022-08-05T20:00:02.073Z,95843.63
2022-08-05T20:02:14.180Z,95841.03
2022-08-05T20:04:43.139Z,95837.77
2022-08-05T20:07:13.836Z,95835.42
2022-08-05T20:09:54.818Z,95838.83
2022-08-05T20:12:24.001Z,95838.05
2022-08-05T20:14:52.518Z,95839.84
2022-08-05T20:17:23.235Z,95842.82
2022-08-05T20:19:56.601Z,95841.40
2022-08-05T20:22:26.598Z,95844.98
2022-08-05T20:24:55.275Z,95841.66
2022-08-05T20:27:27.014Z,95840.75
2022-08-05T20:29:58.315Z,95841.60
2022-08-05T20:32:30.950Z,95838.56
2022-08-05T20:34:59.983Z,95840.23
2022-08-05T20:38:05.962Z,95840.54
2022-08-05T20:40:14.563Z,95841.22
2022-08-05T20:42:45.306Z,95837.99
2022-08-05T20:45:12.559Z,95837.80
2022-08-05T20:47:40.376Z,95835.91
2022-08-05T20:50:08.235Z,95833.84
2022-08-05T20:52:41.455Z,95832.73
2022-08-05T20:55:56.131Z,95832.52
2022-08-05T20:57:57.057Z,95830.80
2022-08-05T21:00:54.401Z,95834.37
2022-08-05T21:03:27.028Z,95834.73
2022-08-05T21:06:27.830Z,95836.03
2022-08-05T21:09:07.669Z,95830.73
2022-08-05T21:12:09.312Z,95833.95
2022-08-05T21:14:41.473Z,95831.59
2022-08-05T21:17:21.832Z,95832.08
2022-08-05T21:19:52.106Z,95829.74
2022-08-05T21:22:21.735Z,95832.20
2022-08-05T21:25:11.862Z,95831.88
2022-08-05T21:27:39.676Z,95832.45
2022-08-05T21:30:17.548Z,95833.56
2022-08-05T21:32:44.548Z,95836.96
2022-08-05T21:35:18.038Z,95837.16
2022-08-05T21:37:57.413Z,95836.64
2022-08-05T21:40:24.988Z,95841.23
2022-08-05T21:42:53.753Z,95837.77
2022-08-05T21:45:38.134Z,95834.55
2022-08-05T21:48:08.478Z,95836.10
2022-08-05T21:50:53.120Z,95834.13
2022-08-05T21:53:27.268Z,95830.20
2022-08-05T21:56:05.668Z,95828.85
2022-08-05T21:58:42.386Z,95832.59
2022-08-05T22:01:24.011Z,95830.04
2022-08-05T22:03:53.509Z,95830.36
2022-08-05T22:06:22.987Z,95831.63
2022-08-05T22:09:02.126Z,95834.95
2022-08-05T22:11:40.993Z,95834.72
2022-08-05T22:14:37.171Z,95834.18
2022-08-05T22:17:01.511Z,95835.27
2022-08-05T22:20:00.424Z,95835.58
2022-08-05T22:28:18.192Z,95832.95
2022-08-05T22:32:12.880Z,95833.33
2022-08-05T22:36:05.354Z,95832.48
2022-08-05T22:39:55.057Z,95831.95
2022-08-05T22:43:43.575Z,95824.71
2022-08-05T22:47:35.334Z,95819.66
2022-08-05T22:51:30.024Z,95821.77
2022-08-05T22:55:37.078Z,95820.60
2022-08-05T22:59:45.247Z,95824.45
2022-08-05T23:03:58.126Z,95819.02
2022-08-05T23:07:48.564Z,95823.14
2022-08-05T23:11:37.860Z,95827.27
2022-08-05T23:15:35.385Z,95826.49
2022-08-05T23:19:25.936Z,95826.36
2022-08-05T23:23:13.911Z,95827.67
2022-08-05T23:27:02.196Z,95831.73
2022-08-05T23:30:53.174Z,95823.43
2022-08-05T23:34:42.906Z,95818.91
2022-08-05T23:38:30.851Z,95817.14
2022-08-05T23:42:29.148Z,95813.80
2022-08-05T23:46:20.226Z,95812.59
2022-08-05T23:50:09.692Z,95814.29
2022-08-05T23:54:01.141Z,95814.19
2022-08-05T23:57:52.712Z,95810.73
